sensor_id;sensor_type;location;lat;lon;timestamp;P1;durP1;ratioP1;P2;durP2;ratioP2
69034;SDS011;56091;55.756;37.412;2022-07-05T00:04:21;17.40;;;9.30;;
69034;SDS011;56091;55.756;37.412;2022-07-05T00:09:23;21.23;;;10.05;;
69034;SDS011;56091;55.756;37.412;2022-07-05T00:14:24;14.50;;;9.50;;
69034;SDS011;56091;55.756;37.412;2022-07-05T00:19:28;16.52;;;9.60;;
69034;SDS011;56091;55.756;37.412;2022-07-05T00:24:29;15.67;;;9.33;;
69034;SDS011;56091;55.756;37.412;2022-07-05T00:29:31;18.83;;;8.90;;
69034;SDS011;56091;55.756;37.412;2022-07-05T00:34:32;20.03;;;9.60;;
69034;SDS011;56091;55.756;37.412;2022-07-05T00:39:33;17.67;;;9.60;;
69034;SDS011;56091;55.756;37.412;2022-07-05T00:44:35;15.30;;;9.20;;
69034;SDS011;56091;55.756;37.412;2022-07-05T00:49:38;16.55;;;8.68;;
69034;SDS011;56091;55.756;37.412;2022-07-05T00:54:39;14.77;;;8.87;;
69034;SDS011;56091;55.756;37.412;2022-07-05T00:59:41;16.55;;;8.50;;
69034;SDS011;56091;55.756;37.412;2022-07-05T01:04:41;14.10;;;8.70;;
69034;SDS011;56091;55.756;37.412;2022-07-05T01:09:45;13.45;;;8.32;;
69034;SDS011;56091;55.756;37.412;2022-07-05T01:14:46;16.67;;;8.40;;
69034;SDS011;56091;55.756;37.412;2022-07-05T01:19:47;15.15;;;8.35;;
69034;SDS011;56091;55.756;37.412;2022-07-05T01:24:49;15.73;;;8.27;;
69034;SDS011;56091;55.756;37.412;2022-07-05T01:29:56;14.18;;;8.07;;
69034;SDS011;56091;55.756;37.412;2022-07-05T01:34:57;18.50;;;8.60;;
69034;SDS011;56091;55.756;37.412;2022-07-05T01:39:58;17.60;;;8.83;;
69034;SDS011;56091;55.756;37.412;2022-07-05T01:45:02;16.95;;;8.52;;
69034;SDS011;56091;55.756;37.412;2022-07-05T01:50:04;16.10;;;8.77;;
69034;SDS011;56091;55.756;37.412;2022-07-05T01:55:06;17.48;;;9.23;;
69034;SDS011;56091;55.756;37.412;2022-07-05T02:00:07;14.10;;;8.70;;
69034;SDS011;56091;55.756;37.412;2022-07-05T02:05:14;16.25;;;8.88;;
69034;SDS011;56091;55.756;37.412;2022-07-05T02:10:16;16.77;;;9.17;;
69034;SDS011;56091;55.756;37.412;2022-07-05T02:15:17;17.30;;;9.20;;
69034;SDS011;56091;55.756;37.412;2022-07-05T02:20:19;19.20;;;8.93;;
69034;SDS011;56091;55.756;37.412;2022-07-05T02:25:20;26.02;;;9.60;;
69034;SDS011;56091;55.756;37.412;2022-07-05T02:30:23;15.30;;;9.50;;
69034;SDS011;56091;55.756;37.412;2022-07-05T02:35:26;18.95;;;9.27;;
69034;SDS011;56091;55.756;37.412;2022-07-05T02:40:27;19.07;;;9.10;;
69034;SDS011;56091;55.756;37.412;2022-07-05T02:45:28;19.90;;;9.35;;
69034;SDS011;56091;55.756;37.412;2022-07-05T02:50:33;15.80;;;9.20;;
69034;SDS011;56091;55.756;37.412;2022-07-05T02:55:34;16.92;;;9.05;;
69034;SDS011;56091;55.756;37.412;2022-07-05T03:00:37;16.77;;;8.80;;
69034;SDS011;56091;55.756;37.412;2022-07-05T03:05:38;15.80;;;8.35;;
69034;SDS011;56091;55.756;37.412;2022-07-05T03:10:40;13.37;;;8.37;;
69034;SDS011;56091;55.756;37.412;2022-07-05T03:15:41;12.00;;;8.30;;
69034;SDS011;56091;55.756;37.412;2022-07-05T03:20:45;17.00;;;8.23;;
69034;SDS011;56091;55.756;37.412;2022-07-05T03:25:47;15.75;;;8.27;;
69034;SDS011;56091;55.756;37.412;2022-07-05T03:30:48;12.73;;;8.00;;
69034;SDS011;56091;55.756;37.412;2022-07-05T03:35:50;13.70;;;7.60;;
69034;SDS011;56091;55.756;37.412;2022-07-05T03:40:53;12.37;;;8.17;;
69034;SDS011;56091;55.756;37.412;2022-07-05T03:45:54;16.50;;;7.50;;
69034;SDS011;56091;55.756;37.412;2022-07-05T03:50:57;13.93;;;8.97;;
69034;SDS011;56091;55.756;37.412;2022-07-05T03:55:58;14.70;;;8.48;;
69034;SDS011;56091;55.756;37.412;2022-07-05T04:01:00;13.27;;;8.20;;
69034;SDS011;56091;55.756;37.412;2022-07-05T04:06:02;16.45;;;8.15;;
69034;SDS011;56091;55.756;37.412;2022-07-05T04:11:05;12.20;;;8.00;;
69034;SDS011;56091;55.756;37.412;2022-07-05T04:16:13;18.10;;;8.82;;
69034;SDS011;56091;55.756;37.412;2022-07-05T04:21:14;14.43;;;8.10;;
69034;SDS011;56091;55.756;37.412;2022-07-05T04:26:16;15.70;;;8.23;;
69034;SDS011;56091;55.756;37.412;2022-07-05T04:31:19;15.20;;;8.17;;
69034;SDS011;56091;55.756;37.412;2022-07-05T04:36:23;12.98;;;8.10;;
69034;SDS011;56091;55.756;37.412;2022-07-05T04:41:28;14.87;;;8.00;;
69034;SDS011;56091;55.756;37.412;2022-07-05T04:46:29;16.35;;;8.02;;
69034;SDS011;56091;55.756;37.412;2022-07-05T04:51:30;13.83;;;8.47;;
69034;SDS011;56091;55.756;37.412;2022-07-05T04:56:31;15.65;;;8.20;;
69034;SDS011;56091;55.756;37.412;2022-07-05T05:01:32;13.93;;;8.43;;
69034;SDS011;56091;55.756;37.412;2022-07-05T05:06:33;16.80;;;8.50;;
69034;SDS011;56091;55.756;37.412;2022-07-05T05:11:33;14.03;;;8.13;;
69034;SDS011;56091;55.756;37.412;2022-07-05T05:16:34;14.23;;;8.35;;
69034;SDS011;56091;55.756;37.412;2022-07-05T05:21:35;13.47;;;8.83;;
69034;SDS011;56091;55.756;37.412;2022-07-05T05:26:36;14.30;;;8.10;;
69034;SDS011;56091;55.756;37.412;2022-07-05T05:31:37;18.20;;;8.20;;
69034;SDS011;56091;55.756;37.412;2022-07-05T05:36:38;18.73;;;8.32;;
69034;SDS011;56091;55.756;37.412;2022-07-05T05:41:39;16.60;;;8.60;;
69034;SDS011;56091;55.756;37.412;2022-07-05T05:46:40;14.65;;;8.10;;
69034;SDS011;56091;55.756;37.412;2022-07-05T05:51:42;13.10;;;8.17;;
69034;SDS011;56091;55.756;37.412;2022-07-05T05:56:43;20.50;;;8.43;;
69034;SDS011;56091;55.756;37.412;2022-07-05T06:01:43;15.03;;;8.13;;
69034;SDS011;56091;55.756;37.412;2022-07-05T06:06:44;14.98;;;7.97;;
69034;SDS011;56091;55.756;37.412;2022-07-05T06:11:45;16.50;;;8.00;;
69034;SDS011;56091;55.756;37.412;2022-07-05T06:16:46;12.73;;;8.25;;
69034;SDS011;56091;55.756;37.412;2022-07-05T06:21:50;13.73;;;8.43;;
69034;SDS011;56091;55.756;37.412;2022-07-05T06:26:51;17.58;;;7.85;;
69034;SDS011;56091;55.756;37.412;2022-07-05T06:31:52;19.90;;;8.20;;
69034;SDS011;56091;55.756;37.412;2022-07-05T06:36:53;15.45;;;8.38;;
69034;SDS011;56091;55.756;37.412;2022-07-05T06:41:57;15.17;;;8.70;;
69034;SDS011;56091;55.756;37.412;2022-07-05T06:46:57;15.95;;;8.45;;
69034;SDS011;56091;55.756;37.412;2022-07-05T06:51:58;14.23;;;9.33;;
69034;SDS011;56091;55.756;37.412;2022-07-05T06:56:59;12.98;;;8.52;;
69034;SDS011;56091;55.756;37.412;2022-07-05T07:02:00;13.53;;;8.50;;
69034;SDS011;56091;55.756;37.412;2022-07-05T07:07:01;13.93;;;8.40;;
69034;SDS011;56091;55.756;37.412;2022-07-05T07:12:02;12.33;;;8.47;;
69034;SDS011;56091;55.756;37.412;2022-07-05T07:17:03;12.00;;;8.13;;
69034;SDS011;56091;55.756;37.412;2022-07-05T07:22:04;11.03;;;8.53;;
69034;SDS011;56091;55.756;37.412;2022-07-05T07:27:08;12.73;;;8.63;;
69034;SDS011;56091;55.756;37.412;2022-07-05T07:32:12;13.63;;;8.77;;
69034;SDS011;56091;55.756;37.412;2022-07-05T07:37:13;13.30;;;8.33;;
69034;SDS011;56091;55.756;37.412;2022-07-05T07:42:14;13.00;;;8.30;;
69034;SDS011;56091;55.756;37.412;2022-07-05T07:47:18;12.10;;;8.57;;
69034;SDS011;56091;55.756;37.412;2022-07-05T07:52:19;9.40;;;7.88;;
69034;SDS011;56091;55.756;37.412;2022-07-05T07:57:19;12.80;;;8.17;;
69034;SDS011;56091;55.756;37.412;2022-07-05T08:02:20;13.05;;;8.80;;
69034;SDS011;56091;55.756;37.412;2022-07-05T08:07:23;14.07;;;9.17;;
69034;SDS011;56091;55.756;37.412;2022-07-05T08:12:24;12.27;;;9.63;;
69034;SDS011;56091;55.756;37.412;2022-07-05T08:17:25;12.03;;;9.13;;
69034;SDS011;56091;55.756;37.412;2022-07-05T08:22:26;13.00;;;9.50;;
69034;SDS011;56091;55.756;37.412;2022-07-05T08:27:27;11.60;;;9.47;;
69034;SDS011;56091;55.756;37.412;2022-07-05T08:32:28;13.50;;;10.10;;
69034;SDS011;56091;55.756;37.412;2022-07-05T08:37:29;17.60;;;9.60;;
69034;SDS011;56091;55.756;37.412;2022-07-05T08:42:30;12.68;;;9.27;;
69034;SDS011;56091;55.756;37.412;2022-07-05T08:47:31;11.70;;;9.27;;
69034;SDS011;56091;55.756;37.412;2022-07-05T08:52:33;14.32;;;10.05;;
69034;SDS011;56091;55.756;37.412;2022-07-05T08:57:34;12.60;;;9.90;;
69034;SDS011;56091;55.756;37.412;2022-07-05T09:02:35;12.98;;;10.25;;
69034;SDS011;56091;55.756;37.412;2022-07-05T09:07:36;13.43;;;10.17;;
69034;SDS011;56091;55.756;37.412;2022-07-05T09:12:38;13.55;;;10.10;;
69034;SDS011;56091;55.756;37.412;2022-07-05T09:17:45;13.33;;;10.13;;
69034;SDS011;56091;55.756;37.412;2022-07-05T09:27:58;15.03;;;10.67;;
69034;SDS011;56091;55.756;37.412;2022-07-05T09:33:02;12.10;;;10.00;;
69034;SDS011;56091;55.756;37.412;2022-07-05T09:38:17;13.35;;;9.93;;
69034;SDS011;56091;55.756;37.412;2022-07-05T09:43:20;12.47;;;10.43;;
69034;SDS011;56091;55.756;37.412;2022-07-05T09:48:32;14.95;;;10.50;;
69034;SDS011;56091;55.756;37.412;2022-07-05T09:53:49;16.53;;;10.63;;
69034;SDS011;56091;55.756;37.412;2022-07-05T09:58:51;15.50;;;10.65;;
69034;SDS011;56091;55.756;37.412;2022-07-05T10:03:59;12.77;;;10.63;;
69034;SDS011;56091;55.756;37.412;2022-07-05T10:09:02;14.55;;;11.00;;
69034;SDS011;56091;55.756;37.412;2022-07-05T10:14:03;14.13;;;10.47;;
69034;SDS011;56091;55.756;37.412;2022-07-05T10:19:13;14.50;;;10.57;;
69034;SDS011;56091;55.756;37.412;2022-07-05T10:24:16;15.40;;;10.45;;
69034;SDS011;56091;55.756;37.412;2022-07-05T10:29:18;13.63;;;10.73;;
69034;SDS011;56091;55.756;37.412;2022-07-05T10:34:20;14.98;;;11.07;;
69034;SDS011;56091;55.756;37.412;2022-07-05T10:39:26;15.17;;;11.03;;
69034;SDS011;56091;55.756;37.412;2022-07-05T10:44:31;16.70;;;10.25;;
69034;SDS011;56091;55.756;37.412;2022-07-05T10:49:33;14.20;;;10.07;;
69034;SDS011;56091;55.756;37.412;2022-07-05T10:54:34;13.65;;;10.48;;
69034;SDS011;56091;55.756;37.412;2022-07-05T11:00:13;13.57;;;10.30;;
69034;SDS011;56091;55.756;37.412;2022-07-05T11:05:16;15.82;;;10.30;;
69034;SDS011;56091;55.756;37.412;2022-07-05T11:10:16;16.80;;;11.13;;
69034;SDS011;56091;55.756;37.412;2022-07-05T11:15:17;17.00;;;11.90;;
69034;SDS011;56091;55.756;37.412;2022-07-05T11:20:28;16.73;;;11.30;;
69034;SDS011;56091;55.756;37.412;2022-07-05T11:25:31;18.70;;;11.60;;
69034;SDS011;56091;55.756;37.412;2022-07-05T11:30:44;15.65;;;11.20;;
69034;SDS011;56091;55.756;37.412;2022-07-05T11:35:46;15.03;;;10.60;;
69034;SDS011;56091;55.756;37.412;2022-07-05T11:40:47;16.52;;;11.00;;
69034;SDS011;56091;55.756;37.412;2022-07-05T11:45:54;18.40;;;11.27;;
69034;SDS011;56091;55.756;37.412;2022-07-05T11:51:11;14.98;;;10.63;;
69034;SDS011;56091;55.756;37.412;2022-07-05T11:56:13;16.70;;;11.07;;
69034;SDS011;56091;55.756;37.412;2022-07-05T12:01:13;18.20;;;10.97;;
69034;SDS011;56091;55.756;37.412;2022-07-05T12:06:14;17.90;;;10.77;;
69034;SDS011;56091;55.756;37.412;2022-07-05T12:11:18;15.77;;;10.97;;
69034;SDS011;56091;55.756;37.412;2022-07-05T12:16:38;21.65;;;11.30;;
69034;SDS011;56091;55.756;37.412;2022-07-05T12:21:39;28.40;;;16.37;;
69034;SDS011;56091;55.756;37.412;2022-07-05T12:26:40;31.55;;;19.98;;
69034;SDS011;56091;55.756;37.412;2022-07-05T12:31:57;34.70;;;19.23;;
69034;SDS011;56091;55.756;37.412;2022-07-05T12:37:00;38.13;;;21.02;;
69034;SDS011;56091;55.756;37.412;2022-07-05T12:42:02;32.65;;;19.63;;
69034;SDS011;56091;55.756;37.412;2022-07-05T12:53:44;29.08;;;16.83;;
69034;SDS011;56091;55.756;37.412;2022-07-05T13:35:15;24.02;;;14.75;;
69034;SDS011;56091;55.756;37.412;2022-07-05T13:40:16;22.67;;;14.50;;
69034;SDS011;56091;55.756;37.412;2022-07-05T13:45:20;25.25;;;14.82;;
69034;SDS011;56091;55.756;37.412;2022-07-05T13:50:21;21.60;;;14.23;;
69034;SDS011;56091;55.756;37.412;2022-07-05T13:55:36;26.70;;;17.67;;
69034;SDS011;56091;55.756;37.412;2022-07-05T14:00:37;27.70;;;15.25;;
69034;SDS011;56091;55.756;37.412;2022-07-05T14:05:38;23.10;;;16.40;;
69034;SDS011;56091;55.756;37.412;2022-07-05T14:10:39;27.23;;;16.77;;
69034;SDS011;56091;55.756;37.412;2022-07-05T14:15:40;27.80;;;15.50;;
69034;SDS011;56091;55.756;37.412;2022-07-05T14:20:41;30.23;;;17.10;;
69034;SDS011;56091;55.756;37.412;2022-07-05T14:25:42;28.90;;;18.27;;
69034;SDS011;56091;55.756;37.412;2022-07-05T14:30:44;34.20;;;17.90;;
69034;SDS011;56091;55.756;37.412;2022-07-05T14:35:46;25.48;;;14.75;;
69034;SDS011;56091;55.756;37.412;2022-07-05T14:40:47;27.90;;;16.43;;
69034;SDS011;56091;55.756;37.412;2022-07-05T14:45:47;31.58;;;18.48;;
69034;SDS011;56091;55.756;37.412;2022-07-05T14:50:51;24.77;;;14.80;;
69034;SDS011;56091;55.756;37.412;2022-07-05T14:55:52;27.77;;;17.05;;
69034;SDS011;56091;55.756;37.412;2022-07-05T15:00:53;26.27;;;15.27;;
69034;SDS011;56091;55.756;37.412;2022-07-05T15:05:59;22.63;;;14.60;;
69034;SDS011;56091;55.756;37.412;2022-07-05T15:11:03;25.30;;;15.63;;
69034;SDS011;56091;55.756;37.412;2022-07-05T15:16:05;18.83;;;12.32;;
69034;SDS011;56091;55.756;37.412;2022-07-05T15:21:06;21.53;;;13.03;;
69034;SDS011;56091;55.756;37.412;2022-07-05T15:26:09;22.98;;;12.82;;
69034;SDS011;56091;55.756;37.412;2022-07-05T15:31:11;21.47;;;12.37;;
69034;SDS011;56091;55.756;37.412;2022-07-05T15:36:12;22.42;;;13.82;;
69034;SDS011;56091;55.756;37.412;2022-07-05T15:41:12;22.10;;;12.80;;
69034;SDS011;56091;55.756;37.412;2022-07-05T15:46:13;21.45;;;14.32;;
69034;SDS011;56091;55.756;37.412;2022-07-05T15:51:17;25.57;;;16.27;;
69034;SDS011;56091;55.756;37.412;2022-07-05T15:56:18;25.35;;;13.73;;
69034;SDS011;56091;55.756;37.412;2022-07-05T16:01:19;23.77;;;14.13;;
69034;SDS011;56091;55.756;37.412;2022-07-05T16:06:20;22.63;;;13.95;;
69034;SDS011;56091;55.756;37.412;2022-07-05T16:11:21;25.27;;;14.00;;
69034;SDS011;56091;55.756;37.412;2022-07-05T16:16:22;23.65;;;13.43;;
69034;SDS011;56091;55.756;37.412;2022-07-05T16:21:23;23.23;;;13.63;;
69034;SDS011;56091;55.756;37.412;2022-07-05T16:26:24;22.52;;;12.25;;
69034;SDS011;56091;55.756;37.412;2022-07-05T16:31:27;21.57;;;12.53;;
69034;SDS011;56091;55.756;37.412;2022-07-05T16:36:30;19.75;;;13.48;;
69034;SDS011;56091;55.756;37.412;2022-07-05T16:41:31;21.40;;;12.67;;
69034;SDS011;56091;55.756;37.412;2022-07-05T16:46:32;21.37;;;14.20;;
69034;SDS011;56091;55.756;37.412;2022-07-05T16:51:33;24.47;;;14.60;;
69034;SDS011;56091;55.756;37.412;2022-07-05T16:56:34;22.37;;;14.60;;
69034;SDS011;56091;55.756;37.412;2022-07-05T17:01:35;23.27;;;14.00;;
69034;SDS011;56091;55.756;37.412;2022-07-05T17:06:36;27.47;;;15.30;;
69034;SDS011;56091;55.756;37.412;2022-07-05T17:11:36;25.90;;;15.85;;
69034;SDS011;56091;55.756;37.412;2022-07-05T17:16:39;25.47;;;15.73;;
69034;SDS011;56091;55.756;37.412;2022-07-05T17:21:40;24.77;;;16.42;;
69034;SDS011;56091;55.756;37.412;2022-07-05T17:26:41;27.90;;;16.00;;
69034;SDS011;56091;55.756;37.412;2022-07-05T17:31:42;28.55;;;14.98;;
69034;SDS011;56091;55.756;37.412;2022-07-05T17:36:43;28.57;;;15.23;;
69034;SDS011;56091;55.756;37.412;2022-07-05T17:41:47;26.83;;;15.13;;
69034;SDS011;56091;55.756;37.412;2022-07-05T17:46:48;25.93;;;16.10;;
69034;SDS011;56091;55.756;37.412;2022-07-05T17:51:49;26.73;;;15.60;;
69034;SDS011;56091;55.756;37.412;2022-07-05T17:56:49;26.37;;;16.70;;
69034;SDS011;56091;55.756;37.412;2022-07-05T18:01:53;28.85;;;15.98;;
69034;SDS011;56091;55.756;37.412;2022-07-05T18:06:54;25.83;;;16.57;;
69034;SDS011;56091;55.756;37.412;2022-07-05T18:11:55;24.50;;;16.23;;
69034;SDS011;56091;55.756;37.412;2022-07-05T18:16:56;27.10;;;16.13;;
69034;SDS011;56091;55.756;37.412;2022-07-05T18:21:57;25.48;;;16.80;;
69034;SDS011;56091;55.756;37.412;2022-07-05T18:26:58;24.50;;;16.27;;
69034;SDS011;56091;55.756;37.412;2022-07-05T18:31:59;26.63;;;15.60;;
69034;SDS011;56091;55.756;37.412;2022-07-05T18:37:00;22.77;;;15.20;;
69034;SDS011;56091;55.756;37.412;2022-07-05T18:42:00;24.73;;;15.85;;
69034;SDS011;56091;55.756;37.412;2022-07-05T18:47:01;23.20;;;15.70;;
69034;SDS011;56091;55.756;37.412;2022-07-05T18:52:03;27.95;;;15.77;;
69034;SDS011;56091;55.756;37.412;2022-07-05T18:57:04;25.47;;;16.10;;
69034;SDS011;56091;55.756;37.412;2022-07-05T19:02:06;25.05;;;15.73;;
69034;SDS011;56091;55.756;37.412;2022-07-05T19:07:15;26.03;;;16.57;;
69034;SDS011;56091;55.756;37.412;2022-07-05T19:12:34;23.38;;;16.58;;
69034;SDS011;56091;55.756;37.412;2022-07-05T19:17:54;27.70;;;17.17;;
69034;SDS011;56091;55.756;37.412;2022-07-05T19:22:58;26.73;;;17.98;;
69034;SDS011;56091;55.756;37.412;2022-07-05T19:27:58;24.87;;;16.93;;
69034;SDS011;56091;55.756;37.412;2022-07-05T19:32:59;26.95;;;17.33;;
69034;SDS011;56091;55.756;37.412;2022-07-05T19:38:00;26.90;;;16.97;;
69034;SDS011;56091;55.756;37.412;2022-07-05T19:43:01;26.52;;;17.92;;
69034;SDS011;56091;55.756;37.412;2022-07-05T19:48:02;26.57;;;17.20;;
69034;SDS011;56091;55.756;37.412;2022-07-05T19:53:03;28.63;;;17.38;;
69034;SDS011;56091;55.756;37.412;2022-07-05T19:58:04;24.90;;;16.67;;
69034;SDS011;56091;55.756;37.412;2022-07-05T20:03:05;26.30;;;17.35;;
69034;SDS011;56091;55.756;37.412;2022-07-05T20:08:06;25.93;;;18.43;;
69034;SDS011;56091;55.756;37.412;2022-07-05T20:13:07;32.45;;;19.30;;
69034;SDS011;56091;55.756;37.412;2022-07-05T20:18:08;30.93;;;19.47;;
69034;SDS011;56091;55.756;37.412;2022-07-05T20:23:09;30.77;;;19.40;;
69034;SDS011;56091;55.756;37.412;2022-07-05T20:28:13;29.97;;;20.07;;
69034;SDS011;56091;55.756;37.412;2022-07-05T20:33:14;31.85;;;19.73;;
69034;SDS011;56091;55.756;37.412;2022-07-05T20:38:17;29.10;;;19.73;;
69034;SDS011;56091;55.756;37.412;2022-07-05T20:43:19;26.92;;;18.92;;
69034;SDS011;56091;55.756;37.412;2022-07-05T20:48:20;29.23;;;19.53;;
69034;SDS011;56091;55.756;37.412;2022-07-05T20:53:22;27.13;;;19.50;;
69034;SDS011;56091;55.756;37.412;2022-07-05T20:58:24;30.07;;;20.23;;
69034;SDS011;56091;55.756;37.412;2022-07-05T21:03:27;30.55;;;20.60;;
69034;SDS011;56091;55.756;37.412;2022-07-05T21:08:28;33.37;;;20.87;;
69034;SDS011;56091;55.756;37.412;2022-07-05T21:13:29;27.17;;;20.03;;
69034;SDS011;56091;55.756;37.412;2022-07-05T21:18:30;32.88;;;21.48;;
69034;SDS011;56091;55.756;37.412;2022-07-05T21:23:34;36.77;;;20.97;;
69034;SDS011;56091;55.756;37.412;2022-07-05T21:28:37;31.65;;;21.15;;
69034;SDS011;56091;55.756;37.412;2022-07-05T21:33:38;30.23;;;21.10;;
69034;SDS011;56091;55.756;37.412;2022-07-05T21:38:42;34.08;;;20.95;;
69034;SDS011;56091;55.756;37.412;2022-07-05T21:43:43;30.27;;;21.43;;
69034;SDS011;56091;55.756;37.412;2022-07-05T21:48:43;33.38;;;20.88;;
69034;SDS011;56091;55.756;37.412;2022-07-05T21:53:46;34.93;;;22.23;;
69034;SDS011;56091;55.756;37.412;2022-07-05T21:58:48;35.05;;;23.27;;
69034;SDS011;56091;55.756;37.412;2022-07-05T22:04:07;34.30;;;23.13;;
69034;SDS011;56091;55.756;37.412;2022-07-05T22:09:29;33.97;;;23.08;;
69034;SDS011;56091;55.756;37.412;2022-07-05T22:14:30;31.23;;;21.97;;
69034;SDS011;56091;55.756;37.412;2022-07-05T22:19:32;30.02;;;21.02;;
69034;SDS011;56091;55.756;37.412;2022-07-05T22:24:33;31.10;;;20.03;;
69034;SDS011;56091;55.756;37.412;2022-07-05T22:29:34;29.73;;;19.77;;
69034;SDS011;56091;55.756;37.412;2022-07-05T22:34:35;30.80;;;21.00;;
69034;SDS011;56091;55.756;37.412;2022-07-05T22:39:36;27.15;;;18.45;;
69034;SDS011;56091;55.756;37.412;2022-07-05T22:44:36;29.13;;;20.10;;
69034;SDS011;56091;55.756;37.412;2022-07-05T22:49:37;27.55;;;19.20;;
69034;SDS011;56091;55.756;37.412;2022-07-05T22:54:38;27.93;;;18.07;;
69034;SDS011;56091;55.756;37.412;2022-07-05T22:59:39;26.77;;;18.37;;
69034;SDS011;56091;55.756;37.412;2022-07-05T23:04:40;27.48;;;19.17;;
69034;SDS011;56091;55.756;37.412;2022-07-05T23:09:40;29.30;;;19.50;;
69034;SDS011;56091;55.756;37.412;2022-07-05T23:14:41;25.40;;;18.73;;
69034;SDS011;56091;55.756;37.412;2022-07-05T23:19:42;27.37;;;19.97;;
69034;SDS011;56091;55.756;37.412;2022-07-05T23:24:43;28.88;;;19.13;;
69034;SDS011;56091;55.756;37.412;2022-07-05T23:29:57;27.77;;;19.17;;
69034;SDS011;56091;55.756;37.412;2022-07-05T23:35:05;26.70;;;18.95;;
69034;SDS011;56091;55.756;37.412;2022-07-05T23:40:06;25.93;;;18.13;;
69034;SDS011;56091;55.756;37.412;2022-07-05T23:45:08;25.17;;;17.92;;
69034;SDS011;56091;55.756;37.412;2022-07-05T23:50:09;25.03;;;17.67;;
69034;SDS011;56091;55.756;37.412;2022-07-05T23:55:10;23.48;;;16.98;;
